createdAt,value
2017-04-25T00:00:24.315Z,927.76
2017-04-25T00:00:52.673Z,927.75
2017-04-25T00:01:21.102Z,927.75
2017-04-25T00:01:49.375Z,927.76
2017-04-25T00:02:17.573Z,927.77
2017-04-25T00:02:45.866Z,927.7
2017-04-25T00:03:14.155Z,927.74
2017-04-25T00:03:42.314Z,927.68
2017-04-25T00:04:53.682Z,927.69
2017-04-25T00:05:22.032Z,927.66
2017-04-25T00:05:50.148Z,927.66
2017-04-25T00:06:18.424Z,927.63
2017-04-25T00:06:46.600Z,927.63
2017-04-25T00:07:15.002Z,927.58
2017-04-25T00:07:43.379Z,927.59
2017-04-25T00:08:11.662Z,927.59
2017-04-25T00:08:39.957Z,927.56
2017-04-25T00:09:08.246Z,927.59
2017-04-25T00:09:36.411Z,927.52
2017-04-25T00:10:47.873Z,927.53
2017-04-25T00:11:16.227Z,927.51
2017-04-25T00:11:44.519Z,927.56
2017-04-25T00:12:12.623Z,927.53
2017-04-25T00:12:40.988Z,927.51
2017-04-25T00:13:09.314Z,927.5
2017-04-25T00:13:37.688Z,927.51
2017-04-25T00:14:06.054Z,927.55
2017-04-25T00:14:34.437Z,927.49
2017-04-25T00:15:02.810Z,927.52
2017-04-25T00:15:30.984Z,927.56
2017-04-25T00:16:42.443Z,927.56
2017-04-25T00:17:10.792Z,927.55
2017-04-25T00:17:39.080Z,927.57
2017-04-25T00:18:07.449Z,927.54
2017-04-25T00:18:35.715Z,927.55
2017-04-25T00:19:04.131Z,927.53
2017-04-25T00:19:32.319Z,927.51
2017-04-25T00:20:00.679Z,927.52
2017-04-25T00:20:28.970Z,927.53
2017-04-25T00:20:57.154Z,927.56
2017-04-25T00:21:25.331Z,927.54
2017-04-25T00:22:36.789Z,927.52
2017-04-25T00:23:05.139Z,927.51
2017-04-25T00:23:33.247Z,927.55
2017-04-25T00:24:01.530Z,927.53
2017-04-25T00:24:29.894Z,927.53
2017-04-25T00:24:58.306Z,927.54
2017-04-25T00:25:26.584Z,927.51
2017-04-25T00:25:54.765Z,927.52
2017-04-25T00:26:23.141Z,927.5
2017-04-25T00:26:51.513Z,927.54
2017-04-25T00:27:19.873Z,927.47
2017-04-25T00:28:31.239Z,927.48
2017-04-25T00:28:59.590Z,927.49
2017-04-25T00:29:27.877Z,927.49
2017-04-25T00:29:56.245Z,927.5
2017-04-25T00:30:24.509Z,927.5
2017-04-25T00:30:52.826Z,927.5
2017-04-25T00:31:21.114Z,927.47
2017-04-25T00:31:49.301Z,927.5
2017-04-25T00:32:17.676Z,927.46
2017-04-25T00:32:46.054Z,927.49
2017-04-25T00:33:14.320Z,927.5
2017-04-25T00:34:25.787Z,927.5
2017-04-25T00:34:54.047Z,927.51
2017-04-25T00:35:22.335Z,927.52
2017-04-25T00:35:50.614Z,927.5
2017-04-25T00:36:18.978Z,927.5
2017-04-25T00:36:48.148Z,927.54
2017-04-25T00:37:16.346Z,927.52
2017-04-25T00:37:44.709Z,927.5
2017-04-25T00:38:13.000Z,927.49
2017-04-25T00:38:41.285Z,927.54
2017-04-25T00:39:09.552Z,927.59
2017-04-25T00:40:21.014Z,927.51
2017-04-25T00:40:49.272Z,927.48
2017-04-25T00:41:17.651Z,927.51
2017-04-25T00:41:46.017Z,927.58
2017-04-25T00:42:14.372Z,927.54
2017-04-25T00:42:42.788Z,927.54
2017-04-25T00:43:11.160Z,927.55
2017-04-25T00:43:39.433Z,927.52
2017-04-25T00:44:07.812Z,927.55
2017-04-25T00:44:36.190Z,927.59
2017-04-25T00:45:04.463Z,927.64
2017-04-25T00:46:15.921Z,927.59
2017-04-25T00:46:44.274Z,927.61
2017-04-25T00:47:12.567Z,927.64
2017-04-25T00:47:40.841Z,927.62
2017-04-25T00:48:09.107Z,927.66
2017-04-25T00:48:37.512Z,927.66
2017-04-25T00:49:05.792Z,927.63
2017-04-25T00:49:34.066Z,927.69
2017-04-25T00:50:02.349Z,927.66
2017-04-25T00:50:30.723Z,927.66
2017-04-25T00:50:58.904Z,927.66
2017-04-25T00:52:10.365Z,927.65
2017-04-25T00:52:38.713Z,927.64
2017-04-25T00:53:06.995Z,927.61
2017-04-25T00:53:35.370Z,927.63
2017-04-25T00:54:03.733Z,927.63
2017-04-25T00:54:32.150Z,927.63
2017-04-25T00:55:00.341Z,927.65
2017-04-25T00:55:28.630Z,927.61
2017-04-25T00:55:57.011Z,927.63
2017-04-25T00:56:25.295Z,927.62
2017-04-25T00:56:53.565Z,927.59
2017-04-25T00:58:05.028Z,927.58
2017-04-25T00:58:33.377Z,927.57
2017-04-25T00:59:01.762Z,927.6
2017-04-25T00:59:30.040Z,927.57
2017-04-25T00:59:58.400Z,927.55
2017-04-25T01:00:26.725Z,927.57
2017-04-25T01:00:55.097Z,927.55
2017-04-25T01:01:23.465Z,927.54
2017-04-25T01:01:51.846Z,927.58
2017-04-25T01:02:20.130Z,927.56
2017-04-25T01:02:48.497Z,927.54
2017-04-25T01:03:59.957Z,927.55
2017-04-25T01:04:28.218Z,927.58
2017-04-25T01:04:56.508Z,927.59
2017-04-25T01:05:24.786Z,927.62
2017-04-25T01:05:53.145Z,927.6
2017-04-25T01:06:21.559Z,927.63
2017-04-25T01:06:49.833Z,927.66
2017-04-25T01:07:18.309Z,927.65
2017-04-25T01:07:46.692Z,927.68
2017-04-25T01:08:14.976Z,927.65
2017-04-25T01:08:43.338Z,927.67
2017-04-25T01:09:54.798Z,927.63
2017-04-25T01:10:23.148Z,927.61
2017-04-25T01:10:51.348Z,927.63
2017-04-25T01:11:19.720Z,927.63
2017-04-25T01:11:48.072Z,927.6
2017-04-25T01:12:16.392Z,927.58
2017-04-25T01:12:44.669Z,927.65
2017-04-25T01:13:13.048Z,927.62
2017-04-25T01:13:41.407Z,927.6
2017-04-25T01:14:09.784Z,927.61
2017-04-25T01:14:38.146Z,927.62
2017-04-25T01:15:49.613Z,927.64
2017-04-25T01:16:18.306Z,927.65
2017-04-25T01:16:46.518Z,927.62
2017-04-25T01:17:14.794Z,927.63
2017-04-25T01:17:43.156Z,927.63
2017-04-25T01:18:11.565Z,927.66
2017-04-25T01:18:39.941Z,927.66
2017-04-25T01:19:08.307Z,927.67
2017-04-25T01:19:36.688Z,927.67
2017-04-25T01:20:05.069Z,927.66
2017-04-25T01:20:33.338Z,927.63
2017-04-25T01:21:44.800Z,927.69
2017-04-25T01:22:13.068Z,927.63
2017-04-25T01:22:41.438Z,927.64
2017-04-25T01:23:09.804Z,927.58
2017-04-25T01:23:38.167Z,927.55
2017-04-25T01:24:06.582Z,927.58
2017-04-25T01:24:34.868Z,927.56
2017-04-25T01:25:03.147Z,927.57
2017-04-25T01:25:31.436Z,927.51
2017-04-25T01:25:59.716Z,927.56
2017-04-25T01:26:28.081Z,927.52
2017-04-25T01:27:39.440Z,927.52
2017-04-25T01:28:07.795Z,927.51
2017-04-25T01:28:36.183Z,927.53
2017-04-25T01:29:04.464Z,927.54
2017-04-25T01:29:32.821Z,927.52
2017-04-25T01:30:01.230Z,927.54
2017-04-25T01:30:29.600Z,927.51
2017-04-25T01:30:57.878Z,927.53
2017-04-25T01:31:26.070Z,927.56
2017-04-25T01:31:54.450Z,927.56
2017-04-25T01:32:22.632Z,927.55
2017-04-25T01:33:34.095Z,927.6
2017-04-25T01:34:02.354Z,927.58
2017-04-25T01:34:30.730Z,927.57
2017-04-25T01:34:59.098Z,927.52
2017-04-25T01:35:27.461Z,927.57
2017-04-25T01:35:55.878Z,927.55
2017-04-25T01:36:24.065Z,927.47
2017-04-25T01:36:52.244Z,927.46
2017-04-25T01:37:20.626Z,927.51
2017-04-25T01:37:48.918Z,927.49
2017-04-25T01:38:17.287Z,927.47
2017-04-25T01:39:28.756Z,927.43
2017-04-25T01:39:57.154Z,927.45
2017-04-25T01:40:25.453Z,927.46
2017-04-25T01:40:53.731Z,927.45
2017-04-25T01:41:21.996Z,927.46
2017-04-25T01:41:50.411Z,927.44
2017-04-25T01:42:18.690Z,927.47
2017-04-25T01:42:47.065Z,927.47
2017-04-25T01:43:15.443Z,927.48
2017-04-25T01:43:43.729Z,927.45
2017-04-25T01:44:11.995Z,927.49
2017-04-25T01:45:23.451Z,927.46
2017-04-25T01:45:51.715Z,927.48
2017-04-25T01:46:20.005Z,927.44
2017-04-25T01:46:48.284Z,927.44
2017-04-25T01:47:16.645Z,927.46
2017-04-25T01:47:45.059Z,927.47
2017-04-25T01:48:13.434Z,927.47
2017-04-25T01:48:41.806Z,927.46
2017-04-25T01:49:10.192Z,927.43
2017-04-25T01:49:38.573Z,927.43
2017-04-25T01:50:06.936Z,927.41
2017-04-25T01:51:18.296Z,927.45
2017-04-25T01:51:46.647Z,927.44
2017-04-25T01:52:14.937Z,927.45
2017-04-25T01:52:43.311Z,927.45
2017-04-25T01:53:11.671Z,927.45
2017-04-25T01:53:40.082Z,927.44
2017-04-25T01:54:08.455Z,927.45
2017-04-25T01:54:36.730Z,927.47
2017-04-25T01:55:05.111Z,927.51
2017-04-25T01:55:33.488Z,927.45
2017-04-25T01:56:01.852Z,927.45
2017-04-25T01:57:13.217Z,927.48
2017-04-25T01:57:41.574Z,927.44
2017-04-25T01:58:09.963Z,927.45
2017-04-25T01:58:38.341Z,927.44
2017-04-25T01:59:06.692Z,927.48
2017-04-25T01:59:35.100Z,927.44
2017-04-25T02:00:03.290Z,927.46
2017-04-25T02:00:31.568Z,927.43
2017-04-25T02:00:59.855Z,927.43
2017-04-25T02:01:28.233Z,927.4
2017-04-25T02:01:56.503Z,927.41
2017-04-25T02:03:07.973Z,927.42
2017-04-25T02:03:36.328Z,927.38
2017-04-25T02:04:04.531Z,927.37
2017-04-25T02:04:32.897Z,927.38
2017-04-25T02:05:01.161Z,927.39
2017-04-25T02:05:29.486Z,927.38
2017-04-25T02:05:57.860Z,927.36
2017-04-25T02:06:26.232Z,927.39
2017-04-25T02:06:54.614Z,927.36
2017-04-25T02:07:22.892Z,927.4
2017-04-25T02:07:51.257Z,927.42
2017-04-25T02:09:02.725Z,927.35
2017-04-25T02:09:31.077Z,927.41
2017-04-25T02:09:59.467Z,927.44
2017-04-25T02:10:27.839Z,927.4
2017-04-25T02:10:56.196Z,927.42
2017-04-25T02:11:24.611Z,927.42
2017-04-25T02:11:52.886Z,927.43
2017-04-25T02:12:21.161Z,927.43
2017-04-25T02:12:49.542Z,927.42
2017-04-25T02:13:17.826Z,927.45
2017-04-25T02:13:46.097Z,927.44
2017-04-25T02:14:57.463Z,927.48
2017-04-25T02:15:25.812Z,927.48
2017-04-25T02:15:54.103Z,927.42
2017-04-25T02:16:22.285Z,927.47
2017-04-25T02:16:50.645Z,927.43
2017-04-25T02:17:19.063Z,927.46
2017-04-25T02:17:47.438Z,927.45
2017-04-25T02:18:15.626Z,927.45
2017-04-25T02:18:44.004Z,927.46
2017-04-25T02:19:12.383Z,927.43
2017-04-25T02:19:40.468Z,927.43
2017-04-25T02:20:51.935Z,927.47
2017-04-25T02:21:20.288Z,927.47
2017-04-25T02:21:48.677Z,927.44
2017-04-25T02:22:16.952Z,927.44
2017-04-25T02:22:45.312Z,927.42
2017-04-25T02:23:13.726Z,927.46
2017-04-25T02:23:42.098Z,927.45
2017-04-25T02:24:10.462Z,927.46
2017-04-25T02:24:38.751Z,927.44
2017-04-25T02:25:07.123Z,927.42
2017-04-25T02:25:35.487Z,927.41
2017-04-25T02:26:46.945Z,927.38
2017-04-25T02:27:15.295Z,927.37
2017-04-25T02:27:43.581Z,927.4
2017-04-25T02:28:11.953Z,927.4
2017-04-25T02:28:40.316Z,927.38
2017-04-25T02:29:08.731Z,927.43
2017-04-25T02:29:36.922Z,927.39
2017-04-25T02:30:05.203Z,927.4
2017-04-25T02:30:33.583Z,927.37
2017-04-25T02:31:01.961Z,927.4
2017-04-25T02:31:30.325Z,927.36
2017-04-25T02:32:41.789Z,927.36
2017-04-25T02:33:10.141Z,927.37
2017-04-25T02:33:38.430Z,927.36
2017-04-25T02:34:06.701Z,927.34
2017-04-25T02:34:35.065Z,927.37
2017-04-25T02:35:03.483Z,927.33
2017-04-25T02:35:31.760Z,927.38
2017-04-25T02:35:59.947Z,927.34
2017-04-25T02:36:28.323Z,927.32
2017-04-25T02:36:56.702Z,927.33
2017-04-25T02:37:24.968Z,927.32
2017-04-25T02:38:36.341Z,927.3
2017-04-25T02:39:04.601Z,927.29
2017-04-25T02:39:32.996Z,927.27
2017-04-25T02:40:01.364Z,927.28
2017-04-25T02:40:29.722Z,927.29
2017-04-25T02:40:58.131Z,927.28
2017-04-25T02:41:26.414Z,927.3
2017-04-25T02:41:54.692Z,927.32
2017-04-25T02:42:23.073Z,927.31
2017-04-25T02:42:51.365Z,927.31
2017-04-25T02:43:19.448Z,927.31
2017-04-25T02:44:30.921Z,927.31
2017-04-25T02:44:59.215Z,927.26
2017-04-25T02:45:27.593Z,927.26
2017-04-25T02:45:55.962Z,927.25
2017-04-25T02:46:24.326Z,927.23
2017-04-25T02:46:52.743Z,927.22
2017-04-25T02:47:21.793Z,927.23
2017-04-25T02:47:50.064Z,927.2
2017-04-25T02:48:18.342Z,927.2
2017-04-25T02:48:46.725Z,927.14
2017-04-25T02:49:14.994Z,927.16
2017-04-25T02:50:26.452Z,927.14
2017-04-25T02:50:54.805Z,927.12
2017-04-25T02:51:23.094Z,927.12
2017-04-25T02:51:51.467Z,927.07
2017-04-25T02:52:19.823Z,927.07
2017-04-25T02:52:48.236Z,927.07
2017-04-25T02:53:16.520Z,927.1
2017-04-25T02:53:44.893Z,927.07
2017-04-25T02:54:13.270Z,927.09
2017-04-25T02:54:41.654Z,927.07
2017-04-25T02:55:09.820Z,927.09
2017-04-25T02:56:21.282Z,927.09
2017-04-25T02:56:49.552Z,927.11
2017-04-25T02:57:17.942Z,927.16
2017-04-25T02:57:46.316Z,927.13
2017-04-25T02:58:14.578Z,927.07
2017-04-25T02:58:42.990Z,927.14
2017-04-25T02:59:11.359Z,927.08
2017-04-25T02:59:39.637Z,927.03
2017-04-25T03:00:07.836Z,927.03
2017-04-25T03:00:36.214Z,927.05
2017-04-25T03:01:04.576Z,927.01
2017-04-25T03:02:16.044Z,927.07
2017-04-25T03:02:44.392Z,927.01
2017-04-25T03:03:12.683Z,927.03
2017-04-25T03:03:41.050Z,927.08
2017-04-25T03:04:09.322Z,927.11
2017-04-25T03:04:37.739Z,927.04
2017-04-25T03:05:06.112Z,927.04
2017-04-25T03:05:34.396Z,927.03
2017-04-25T03:06:02.777Z,927.04
2017-04-25T03:06:31.057Z,927.04
2017-04-25T03:06:59.418Z,927.02
2017-04-25T03:08:10.888Z,927.02
2017-04-25T03:08:39.242Z,927.02
2017-04-25T03:09:07.541Z,926.99
2017-04-25T03:09:35.819Z,926.98
2017-04-25T03:10:04.089Z,926.96
2017-04-25T03:10:32.501Z,926.91
2017-04-25T03:11:00.875Z,926.96
2017-04-25T03:11:29.240Z,926.92
2017-04-25T03:11:57.619Z,926.92
2017-04-25T03:12:25.996Z,926.87
2017-04-25T03:12:54.080Z,926.88
2017-04-25T03:14:05.542Z,926.89
2017-04-25T03:14:33.894Z,926.87
2017-04-25T03:15:02.187Z,926.89
2017-04-25T03:15:30.369Z,926.89
2017-04-25T03:15:58.730Z,926.87
2017-04-25T03:16:27.143Z,926.9
2017-04-25T03:16:55.515Z,926.92
2017-04-25T03:17:23.883Z,926.92
2017-04-25T03:17:52.268Z,926.86
2017-04-25T03:18:20.645Z,926.87
2017-04-25T03:18:48.821Z,926.89
2017-04-25T03:20:00.288Z,926.86
2017-04-25T03:20:28.647Z,926.92
2017-04-25T03:20:56.849Z,926.9
2017-04-25T03:21:25.213Z,926.93
2017-04-25T03:21:53.575Z,926.87
2017-04-25T03:22:21.986Z,926.89
2017-04-25T03:22:50.358Z,926.94
2017-04-25T03:23:18.728Z,926.92
2017-04-25T03:23:47.108Z,926.9
2017-04-25T03:24:15.396Z,926.88
2017-04-25T03:24:43.476Z,926.94
2017-04-25T03:25:54.939Z,926.96
2017-04-25T03:26:23.290Z,926.86
2017-04-25T03:26:51.679Z,926.85
2017-04-25T03:27:20.053Z,926.91
2017-04-25T03:27:48.412Z,926.86
2017-04-25T03:28:16.819Z,926.87
2017-04-25T03:28:45.103Z,926.84
2017-04-25T03:29:13.474Z,926.85
2017-04-25T03:29:41.850Z,926.81
2017-04-25T03:30:09.954Z,926.78
2017-04-25T03:30:38.314Z,926.83
2017-04-25T03:31:49.780Z,926.76
2017-04-25T03:32:18.036Z,926.76
2017-04-25T03:32:46.418Z,926.77
2017-04-25T03:33:14.520Z,926.74
2017-04-25T03:33:42.802Z,926.73
2017-04-25T03:34:11.195Z,926.71
2017-04-25T03:34:39.565Z,926.78
2017-04-25T03:35:07.931Z,926.71
2017-04-25T03:35:36.306Z,926.79
2017-04-25T03:36:04.689Z,926.7
2017-04-25T03:36:32.858Z,926.76
2017-04-25T03:37:44.226Z,926.66
2017-04-25T03:38:12.578Z,926.69
2017-04-25T03:38:40.870Z,926.72
2017-04-25T03:39:09.238Z,926.73
2017-04-25T03:39:37.599Z,926.74
2017-04-25T03:40:06.013Z,926.75
2017-04-25T03:40:34.387Z,926.77
2017-04-25T03:41:02.754Z,926.75
2017-04-25T03:41:31.133Z,926.74
2017-04-25T03:41:59.517Z,926.72
2017-04-25T03:42:27.677Z,926.75
2017-04-25T03:43:39.049Z,926.73
2017-04-25T03:44:07.398Z,926.78
2017-04-25T03:44:35.689Z,926.76
2017-04-25T03:45:03.967Z,926.76
2017-04-25T03:45:32.330Z,926.71
2017-04-25T03:46:00.745Z,926.72
2017-04-25T03:46:29.118Z,926.74
2017-04-25T03:46:57.491Z,926.74
2017-04-25T03:47:25.867Z,926.71
2017-04-25T03:47:54.244Z,926.71
2017-04-25T03:48:22.417Z,926.69
2017-04-25T03:49:33.784Z,926.64
2017-04-25T03:50:02.139Z,926.71
2017-04-25T03:50:30.340Z,926.64
2017-04-25T03:50:58.707Z,926.68
2017-04-25T03:51:26.970Z,926.67
2017-04-25T03:51:55.376Z,926.69
2017-04-25T03:52:23.751Z,926.67
2017-04-25T03:52:52.031Z,926.65
2017-04-25T03:53:20.222Z,926.65
2017-04-25T03:53:48.599Z,926.66
2017-04-25T03:54:16.778Z,926.65
2017-04-25T03:55:28.161Z,926.67
2017-04-25T03:55:56.509Z,926.63
2017-04-25T03:56:24.894Z,926.55
2017-04-25T03:56:53.165Z,926.54
2017-04-25T03:57:21.525Z,926.55
2017-04-25T03:57:49.942Z,926.57
2017-04-25T03:58:18.316Z,926.53
2017-04-25T03:58:46.601Z,926.58
2017-04-25T03:59:14.964Z,926.5
2017-04-25T03:59:43.339Z,926.53
2017-04-25T04:00:11.609Z,926.47
2017-04-25T04:01:23.072Z,926.48
2017-04-25T04:01:51.425Z,926.52
2017-04-25T04:02:19.815Z,926.47
2017-04-25T04:02:48.174Z,926.47
2017-04-25T04:03:16.532Z,926.49
2017-04-25T04:03:44.944Z,926.41
2017-04-25T04:04:13.222Z,926.49
2017-04-25T04:04:41.597Z,926.43
2017-04-25T04:05:09.981Z,926.45
2017-04-25T04:05:38.357Z,926.48
2017-04-25T04:06:06.624Z,926.44
2017-04-25T04:07:18.086Z,926.43
2017-04-25T04:07:46.465Z,926.42
2017-04-25T04:08:14.661Z,926.39
2017-04-25T04:08:43.028Z,926.43
2017-04-25T04:09:11.391Z,926.39
2017-04-25T04:09:39.801Z,926.38
2017-04-25T04:10:07.893Z,926.4
2017-04-25T04:10:36.161Z,926.44
2017-04-25T04:11:04.387Z,926.38
2017-04-25T04:11:32.750Z,926.33
2017-04-25T04:12:01.014Z,926.38
2017-04-25T04:13:12.369Z,926.38
2017-04-25T04:13:40.565Z,926.36
2017-04-25T04:14:08.846Z,926.36
2017-04-25T04:14:37.116Z,926.33
2017-04-25T04:15:05.293Z,926.36
2017-04-25T04:15:33.702Z,926.38
2017-04-25T04:16:02.073Z,926.35
2017-04-25T04:16:30.239Z,926.38
2017-04-25T04:16:58.554Z,926.36
2017-04-25T04:17:26.914Z,926.34
2017-04-25T04:17:55.083Z,926.29
2017-04-25T04:19:06.538Z,926.28
2017-04-25T04:19:34.919Z,926.3
2017-04-25T04:20:03.211Z,926.25
2017-04-25T04:20:31.504Z,926.23
2017-04-25T04:20:59.776Z,926.26
2017-04-25T04:21:28.193Z,926.35
2017-04-25T04:21:56.609Z,926.24
2017-04-25T04:22:24.883Z,926.3
2017-04-25T04:22:53.161Z,926.32
2017-04-25T04:23:21.522Z,926.28
2017-04-25T04:23:49.783Z,926.28
2017-04-25T04:25:01.142Z,926.28
2017-04-25T04:25:29.309Z,926.25
2017-04-25T04:25:57.702Z,926.23
2017-04-25T04:26:26.091Z,926.26
2017-04-25T04:26:54.456Z,926.23
2017-04-25T04:27:22.869Z,926.24
2017-04-25T04:27:51.207Z,926.27
2017-04-25T04:28:19.480Z,926.25
2017-04-25T04:28:47.858Z,926.21
2017-04-25T04:29:16.222Z,926.26
2017-04-25T04:29:44.924Z,926.17
2017-04-25T04:30:56.380Z,926.22
2017-04-25T04:31:24.732Z,926.2
2017-04-25T04:31:53.116Z,926.11
2017-04-25T04:32:21.499Z,926.18
2017-04-25T04:32:49.681Z,926.19
2017-04-25T04:33:18.100Z,926.21
2017-04-25T04:33:46.517Z,926.21
2017-04-25T04:34:14.793Z,926.14
2017-04-25T04:34:43.077Z,926.17
2017-04-25T04:35:11.433Z,926.14
2017-04-25T04:35:39.789Z,926.12
2017-04-25T04:36:51.151Z,926.14
2017-04-25T04:37:19.502Z,926.1
2017-04-25T04:37:47.702Z,926.09
2017-04-25T04:38:16.000Z,926.14
2017-04-25T04:38:44.367Z,926.07
2017-04-25T04:39:12.778Z,926.02
2017-04-25T04:39:41.006Z,925.98
2017-04-25T04:40:09.286Z,925.99
2017-04-25T04:40:37.659Z,925.97
2017-04-25T04:41:06.016Z,925.99
2017-04-25T04:41:34.278Z,926
2017-04-25T04:42:45.641Z,925.98
2017-04-25T04:43:13.998Z,925.93
2017-04-25T04:43:42.289Z,925.94
2017-04-25T04:44:10.580Z,925.9
2017-04-25T04:44:38.856Z,925.92
2017-04-25T04:45:07.281Z,925.92
2017-04-25T04:45:35.515Z,925.98
2017-04-25T04:46:03.789Z,925.99
2017-04-25T04:46:32.070Z,925.94
2017-04-25T04:47:00.428Z,926.05
2017-04-25T04:47:28.782Z,926.06
2017-04-25T04:48:40.232Z,926.09
2017-04-25T04:49:08.590Z,926.08
2017-04-25T04:49:36.791Z,926.04
2017-04-25T04:50:05.173Z,926.08
2017-04-25T04:50:33.536Z,926.15
2017-04-25T04:51:01.853Z,925.99
2017-04-25T04:51:30.271Z,926.05
2017-04-25T04:51:58.639Z,925.94
2017-04-25T04:52:26.924Z,925.97
2017-04-25T04:52:55.280Z,925.91
2017-04-25T04:53:23.540Z,926
2017-04-25T04:54:34.897Z,925.91
2017-04-25T04:55:03.257Z,925.92
2017-04-25T04:55:31.546Z,925.92
2017-04-25T04:55:59.928Z,925.9
2017-04-25T04:56:28.294Z,925.86
2017-04-25T04:56:56.615Z,925.95
2017-04-25T04:57:24.936Z,925.89
2017-04-25T04:57:53.212Z,925.91
2017-04-25T04:58:21.492Z,925.91
2017-04-25T04:58:49.854Z,925.87
2017-04-25T04:59:18.208Z,925.79
2017-04-25T05:00:29.575Z,925.78
2017-04-25T05:00:57.931Z,925.8
2017-04-25T05:01:26.221Z,925.73
2017-04-25T05:01:54.603Z,925.78
2017-04-25T05:02:22.968Z,925.74
2017-04-25T05:02:51.379Z,925.79
2017-04-25T05:03:19.707Z,925.74
2017-04-25T05:03:48.074Z,925.79
2017-04-25T05:04:16.442Z,925.69
2017-04-25T05:04:44.802Z,925.74
2017-04-25T05:05:13.156Z,925.74
2017-04-25T05:06:24.508Z,925.73
2017-04-25T05:06:52.868Z,925.69
2017-04-25T05:07:21.160Z,925.7
2017-04-25T05:07:49.366Z,925.68
2017-04-25T05:08:17.734Z,925.69
2017-04-25T05:08:46.058Z,925.65
2017-04-25T05:09:14.387Z,925.66
2017-04-25T05:09:42.570Z,925.62
2017-04-25T05:10:10.948Z,925.65
2017-04-25T05:10:39.116Z,925.65
2017-04-25T05:11:07.470Z,925.66
2017-04-25T05:12:18.738Z,925.59
2017-04-25T05:12:46.996Z,925.64
2017-04-25T05:13:15.380Z,925.68
2017-04-25T05:13:43.766Z,925.57
2017-04-25T05:14:12.137Z,925.65
2017-04-25T05:14:40.460Z,925.64
2017-04-25T05:15:08.882Z,925.63
2017-04-25T05:15:37.249Z,925.65
2017-04-25T05:16:05.527Z,925.62
2017-04-25T05:16:33.884Z,925.61
2017-04-25T05:17:02.244Z,925.62
2017-04-25T05:18:13.509Z,925.66
2017-04-25T05:18:41.864Z,925.63
2017-04-25T05:19:10.069Z,925.62
2017-04-25T05:19:38.175Z,925.64
2017-04-25T05:20:06.534Z,925.65
2017-04-25T05:20:34.857Z,925.63
2017-04-25T05:21:03.090Z,925.6
2017-04-25T05:21:31.452Z,925.63
2017-04-25T05:21:59.832Z,925.63
2017-04-25T05:22:28.187Z,925.59
2017-04-25T05:22:56.450Z,925.59
2017-04-25T05:24:07.903Z,925.57
2017-04-25T05:24:36.159Z,925.61
2017-04-25T05:25:04.455Z,925.53
2017-04-25T05:25:32.742Z,925.52
2017-04-25T05:26:01.015Z,925.54
2017-04-25T05:26:29.335Z,925.54
2017-04-25T05:26:57.754Z,925.54
2017-04-25T05:27:26.126Z,925.5
2017-04-25T05:27:54.409Z,925.55
2017-04-25T05:28:22.762Z,925.48
2017-04-25T05:28:51.116Z,925.52
2017-04-25T05:30:02.381Z,925.55
2017-04-25T05:30:30.736Z,925.51
2017-04-25T05:30:59.120Z,925.53
2017-04-25T05:31:27.408Z,925.46
2017-04-25T05:31:55.775Z,925.58
2017-04-25T05:32:24.188Z,925.52
2017-04-25T05:32:52.610Z,925.48
2017-04-25T05:33:20.974Z,925.49
2017-04-25T05:33:49.349Z,925.39
2017-04-25T05:34:17.707Z,925.42
2017-04-25T05:34:46.063Z,925.4
2017-04-25T05:35:57.417Z,925.4
2017-04-25T05:36:25.776Z,925.32
2017-04-25T05:36:54.159Z,925.49
2017-04-25T05:37:22.447Z,925.4
2017-04-25T05:37:50.718Z,925.3
2017-04-25T05:38:19.133Z,925.29
2017-04-25T05:38:47.460Z,925.41
2017-04-25T05:39:15.732Z,925.45
2017-04-25T05:39:44.014Z,925.41
2017-04-25T05:40:12.368Z,925.43
2017-04-25T05:40:40.717Z,925.43
2017-04-25T05:41:52.169Z,925.41
2017-04-25T05:42:20.427Z,925.34
2017-04-25T05:42:48.720Z,925.32
2017-04-25T05:43:16.921Z,925.31
2017-04-25T05:43:45.192Z,925.36
2017-04-25T05:44:13.515Z,925.33
2017-04-25T05:44:41.935Z,925.33
2017-04-25T05:45:10.210Z,925.32
2017-04-25T05:45:38.581Z,925.29
2017-04-25T05:46:06.935Z,925.33
2017-04-25T05:46:35.298Z,925.32
2017-04-25T05:47:46.746Z,925.32
2017-04-25T05:48:15.101Z,925.31
2017-04-25T05:48:43.393Z,925.34
2017-04-25T05:49:11.699Z,925.28
2017-04-25T05:49:40.066Z,925.27
2017-04-25T05:50:08.384Z,925.21
2017-04-25T05:50:36.617Z,925.26
2017-04-25T05:51:04.805Z,925.25
2017-04-25T05:51:33.185Z,925.22
2017-04-25T05:52:01.539Z,925.23
2017-04-25T05:52:29.890Z,925.23
2017-04-25T05:53:41.341Z,925.21
2017-04-25T05:54:09.594Z,925.24
2017-04-25T05:54:37.888Z,925.24
2017-04-25T05:55:06.181Z,925.24
2017-04-25T05:55:34.445Z,925.24
2017-04-25T05:56:02.671Z,925.27
2017-04-25T05:56:31.081Z,925.18
2017-04-25T05:56:59.360Z,925.19
2017-04-25T05:57:27.642Z,925.21
2017-04-25T05:57:55.905Z,925.2
2017-04-25T05:58:24.256Z,925.16
2017-04-25T05:59:35.708Z,925.22
2017-04-25T06:00:04.063Z,925.25
2017-04-25T06:00:32.261Z,925.16
2017-04-25T06:01:00.550Z,925.2
2017-04-25T06:01:28.820Z,925.22
2017-04-25T06:01:57.232Z,925.21
2017-04-25T06:02:25.466Z,925.14
2017-04-25T06:02:53.829Z,925.21
2017-04-25T06:03:22.206Z,925.14
2017-04-25T06:03:50.471Z,925.17
2017-04-25T06:04:18.737Z,925.15
2017-04-25T06:05:30.098Z,925.1
2017-04-25T06:05:58.357Z,925.06
2017-04-25T06:06:26.652Z,925.05
2017-04-25T06:06:55.038Z,925.1
2017-04-25T06:07:23.303Z,925.12
2017-04-25T06:07:51.626Z,925.14
2017-04-25T06:08:19.946Z,925.1
2017-04-25T06:08:48.232Z,925.07
2017-04-25T06:09:16.613Z,925.05
2017-04-25T06:09:44.881Z,925.06
2017-04-25T06:10:13.138Z,925.04
2017-04-25T06:11:24.404Z,925.11
2017-04-25T06:11:52.760Z,925.08
2017-04-25T06:12:21.049Z,924.96
2017-04-25T06:12:49.158Z,925.05
2017-04-25T06:13:17.525Z,925
2017-04-25T06:13:45.851Z,924.91
2017-04-25T06:14:14.082Z,925.09
2017-04-25T06:14:42.362Z,924.94
2017-04-25T06:15:10.732Z,924.92
2017-04-25T06:15:39.089Z,924.95
2017-04-25T06:16:07.352Z,925.02
2017-04-25T06:17:18.613Z,925.03
2017-04-25T06:17:46.874Z,924.96
2017-04-25T06:18:15.168Z,924.91
2017-04-25T06:18:43.193Z,924.95
2017-04-25T06:19:11.471Z,924.92
2017-04-25T06:19:39.794Z,924.95
2017-04-25T06:20:08.027Z,924.93
2017-04-25T06:20:36.391Z,924.92
2017-04-25T06:21:04.766Z,924.96
2017-04-25T06:21:33.123Z,924.97
2017-04-25T06:22:01.483Z,924.92
2017-04-25T06:23:12.942Z,924.95
2017-04-25T06:23:41.292Z,925.02
2017-04-25T06:24:09.583Z,924.99
2017-04-25T06:24:37.780Z,924.95
2017-04-25T06:25:06.143Z,924.96
2017-04-25T06:25:34.560Z,924.95
2017-04-25T06:26:02.983Z,924.96
2017-04-25T06:26:31.346Z,924.93
2017-04-25T06:26:59.728Z,924.97
2017-04-25T06:27:27.983Z,924.93
2017-04-25T06:27:56.331Z,924.94
2017-04-25T06:29:07.722Z,924.91
2017-04-25T06:29:36.052Z,925.03
2017-04-25T06:30:04.246Z,924.91
2017-04-25T06:30:32.356Z,924.96
2017-04-25T06:31:00.715Z,924.92
2017-04-25T06:31:29.127Z,924.86
2017-04-25T06:31:57.452Z,924.82
2017-04-25T06:32:25.720Z,924.9
2017-04-25T06:32:54.098Z,924.85
2017-04-25T06:33:22.269Z,924.85
2017-04-25T06:33:50.528Z,924.9
2017-04-25T06:35:01.884Z,924.93
2017-04-25T06:35:29.959Z,924.81
2017-04-25T06:35:58.342Z,924.83
2017-04-25T06:36:26.725Z,924.88
2017-04-25T06:36:55.087Z,924.84
2017-04-25T06:37:23.411Z,924.88
2017-04-25T06:37:51.828Z,924.84
2017-04-25T06:38:19.918Z,924.83
2017-04-25T06:38:48.204Z,924.85
2017-04-25T06:39:16.459Z,924.9
2017-04-25T06:39:44.811Z,924.89
2017-04-25T06:40:56.176Z,924.89
2017-04-25T06:41:24.434Z,924.89
2017-04-25T06:41:52.636Z,924.88
2017-04-25T06:42:20.836Z,924.88
2017-04-25T06:42:49.198Z,924.85
2017-04-25T06:43:17.423Z,924.89